메인 페이지
METAR-TAF:

METAR-TAF

공항 :

잭슨빌, 플로리다, 미국

위도: 30-20-10N, 경도: 081-30-53W, 고도: 12m

현재 날씨관측

예보는 20분 전, 15:53시(UTC)에 발표되었습니다.
서남서10kt
온도 29°C
습도 66%
기압 1017 hPa
시정: 16.1km
고도 2900ft 상공 구름 보통
고도 3400ft 상공 구름 보통
고도 4300ft 상공 구름 많음

METAR: KCRG 301553Z 25010KT 10SM SCT029 SCT034 BKN043 29/22 A3003 RMK AO2 SLP168 T02890222

시각: 12:13 (16:13 UTC)

예보

예보는 4 시간 50분 전, 11:23시(UTC)에 발표되었습니다.
예보 대상 시간: 30일 12시부터 31일 12시까지 (UTC)
4kt
시정: 10km
고도 1000ft 상공 구름 조금
고도 7000ft 상공 구름 보통
고도 25000ft 상공 구름 많음
일시적
30일 12시부터 30일 13시까지 (UTC)
시정: 8.0km
고도 500ft 상공 구름 보통
박무
30일 1600시부터 (UTC)
8kt
시정: 10km
고도 2500ft 상공 구름 보통
고도 4000ft 상공 구름 많음
시계 내 소나기
30일 1900시부터 (UTC)
남남동9kt
시정: 10km
고도 4000ft 상공 구름 많음, 적란운.
고도 8000ft 상공 구름 많음
시계 내 뇌우
31일 0300시부터 (UTC)
4kt
시정: 10km
고도 2500ft 상공 구름 보통
고도 4000ft 상공 구름 보통
고도 20000ft 상공 구름 많음

TAF: KCRG 301123Z 3012/3112 28004KT P6SM FEW010 SCT070 BKN250 TEMPO 3012/3013 5SM BR SCT005 FM301600 28008KT P6SM VCSH SCT025 BKN040 FM301900 15009KT P6SM VCTS BKN040CB BKN080 FM310300 27004KT P6SM SCT025 SCT040 BKN200

4,000개 이상의 공항 관측 자료 및 예보 (METAR 및 TAF 보고).

지도상에서 검색 가능한 기상관측소가 노란 점과 빨간 점으로 표시되어 있습니다.

기상관측소 명을 보려면 표시 위로 마우스를 이동하세요.

날씨 관측과 예보를 보려면 클릭하세요.

지도 변경 : 확대하려면 엑스 표시가 있는 녹색 버튼, 축소하려면 빼기 표시가 있는 녹색 버튼, 다음 페이지의 지도를 보려면 녹색 화살표를 클릭하세요.


METAR-TAF: